CYQZ

Quesnel Airport

Quesnel, British Columbia, Canada
METAR CYQZ 220600Z AUTO 00000KT 9SM CLR 00/M06 A3026 RMK SLP271
Observed Flight Rules
Apr-22 @ 06:00 UTC (59 minutes ago) Visual Flight Rules
Visibility Clouds
9 miles
  • Clear skies
Temperatures Readings
Current 0°C / 32°F
Dewpoint -6°C / 21°F
Humidity 64%
Altimeter 30.26" Hg
Pressure 1027.1 hPa
Elevation 545
METAR CYQZ 220600Z AUTO 00000KT 9SM CLR 00/M06 A3026 RMK SLP271
Observed Flight Rules
Apr-22 @ 06:00 UTC
(59 minutes ago)
VFR
Clouds
  • Clear skies
Temperature Dewpoint
0°C / 32°F -6°C / 21°F
Humidity Altimeter Pressure
64% 30.26" Hg 1027.1 hPa